sensor_id;sensor_type;location;lat;lon;timestamp;P1;durP1;ratioP1;P2;durP2;ratioP2
61391;SDS011;47261;52.892;5.738;2023-06-10T00:01:12;12.55;;;4.35;;
61391;SDS011;47261;52.892;5.738;2023-06-10T00:03:38;8.90;;;3.80;;
61391;SDS011;47261;52.892;5.738;2023-06-10T00:06:04;10.68;;;3.70;;
61391;SDS011;47261;52.892;5.738;2023-06-10T00:08:30;8.70;;;3.70;;
61391;SDS011;47261;52.892;5.738;2023-06-10T00:10:56;10.95;;;3.83;;
61391;SDS011;47261;52.892;5.738;2023-06-10T00:13:22;13.35;;;3.75;;
61391;SDS011;47261;52.892;5.738;2023-06-10T00:15:47;13.60;;;3.90;;
61391;SDS011;47261;52.892;5.738;2023-06-10T00:18:13;9.57;;;3.60;;
61391;SDS011;47261;52.892;5.738;2023-06-10T00:20:39;10.20;;;3.80;;
61391;SDS011;47261;52.892;5.738;2023-06-10T00:23:05;11.77;;;4.20;;
61391;SDS011;47261;52.892;5.738;2023-06-10T00:25:33;9.43;;;3.88;;
61391;SDS011;47261;52.892;5.738;2023-06-10T00:27:59;14.73;;;3.67;;
61391;SDS011;47261;52.892;5.738;2023-06-10T00:30:24;7.90;;;3.33;;
61391;SDS011;47261;52.892;5.738;2023-06-10T00:32:51;10.30;;;3.67;;
61391;SDS011;47261;52.892;5.738;2023-06-10T00:35:16;10.43;;;3.57;;
61391;SDS011;47261;52.892;5.738;2023-06-10T00:37:42;10.25;;;3.95;;
61391;SDS011;47261;52.892;5.738;2023-06-10T00:40:08;10.57;;;3.50;;
61391;SDS011;47261;52.892;5.738;2023-06-10T00:42:34;9.57;;;3.15;;
61391;SDS011;47261;52.892;5.738;2023-06-10T00:45:00;10.57;;;4.10;;
61391;SDS011;47261;52.892;5.738;2023-06-10T00:47:26;10.45;;;3.83;;
61391;SDS011;47261;52.892;5.738;2023-06-10T00:49:52;10.32;;;3.40;;
61391;SDS011;47261;52.892;5.738;2023-06-10T00:52:19;11.60;;;3.70;;
61391;SDS011;47261;52.892;5.738;2023-06-10T00:54:47;10.57;;;3.67;;
61391;SDS011;47261;52.892;5.738;2023-06-10T00:57:13;10.35;;;3.92;;
61391;SDS011;47261;52.892;5.738;2023-06-10T00:59:39;10.00;;;3.73;;
61391;SDS011;47261;52.892;5.738;2023-06-10T01:02:06;13.67;;;4.20;;
61391;SDS011;47261;52.892;5.738;2023-06-10T01:04:32;11.70;;;3.95;;
61391;SDS011;47261;52.892;5.738;2023-06-10T01:12:43;11.23;;;4.70;;
61391;SDS011;47261;52.892;5.738;2023-06-10T01:15:17;15.13;;;3.78;;
61391;SDS011;47261;52.892;5.738;2023-06-10T01:20:40;12.73;;;4.40;;
61391;SDS011;47261;52.892;5.738;2023-06-10T01:23:08;11.05;;;3.90;;
61391;SDS011;47261;52.892;5.738;2023-06-10T01:25:40;10.27;;;4.17;;
61391;SDS011;47261;52.892;5.738;2023-06-10T01:28:19;13.30;;;3.83;;
61391;SDS011;47261;52.892;5.738;2023-06-10T01:31:20;12.45;;;4.07;;
61391;SDS011;47261;52.892;5.738;2023-06-10T01:33:59;11.23;;;3.70;;
61391;SDS011;47261;52.892;5.738;2023-06-10T01:36:25;9.25;;;4.30;;
61391;SDS011;47261;52.892;5.738;2023-06-10T01:38:53;10.50;;;4.30;;
61391;SDS011;47261;52.892;5.738;2023-06-10T01:41:20;10.90;;;4.45;;
61391;SDS011;47261;52.892;5.738;2023-06-10T01:43:47;11.68;;;4.07;;
61391;SDS011;47261;52.892;5.738;2023-06-10T01:46:13;10.88;;;3.70;;
61391;SDS011;47261;52.892;5.738;2023-06-10T01:48:40;11.25;;;4.28;;
61391;SDS011;47261;52.892;5.738;2023-06-10T01:51:07;12.30;;;3.83;;
61391;SDS011;47261;52.892;5.738;2023-06-10T01:53:32;10.88;;;4.00;;
61391;SDS011;47261;52.892;5.738;2023-06-10T01:55:58;16.50;;;4.40;;
61391;SDS011;47261;52.892;5.738;2023-06-10T01:58:23;12.57;;;4.32;;
61391;SDS011;47261;52.892;5.738;2023-06-10T02:00:49;11.27;;;4.17;;
61391;SDS011;47261;52.892;5.738;2023-06-10T02:03:15;8.38;;;4.03;;
61391;SDS011;47261;52.892;5.738;2023-06-10T02:05:41;13.37;;;4.23;;
61391;SDS011;47261;52.892;5.738;2023-06-10T02:08:06;14.10;;;4.50;;
61391;SDS011;47261;52.892;5.738;2023-06-10T02:10:32;11.40;;;4.07;;
61391;SDS011;47261;52.892;5.738;2023-06-10T02:12:57;10.37;;;3.80;;
61391;SDS011;47261;52.892;5.738;2023-06-10T02:15:23;14.40;;;4.50;;
61391;SDS011;47261;52.892;5.738;2023-06-10T02:17:49;13.05;;;4.18;;
61391;SDS011;47261;52.892;5.738;2023-06-10T02:20:15;11.80;;;3.90;;
61391;SDS011;47261;52.892;5.738;2023-06-10T02:22:41;8.70;;;3.80;;
61391;SDS011;47261;52.892;5.738;2023-06-10T02:25:07;12.32;;;4.00;;
61391;SDS011;47261;52.892;5.738;2023-06-10T02:27:33;12.90;;;4.35;;
61391;SDS011;47261;52.892;5.738;2023-06-10T02:29:59;11.17;;;4.40;;
61391;SDS011;47261;52.892;5.738;2023-06-10T02:32:24;9.20;;;3.93;;
61391;SDS011;47261;52.892;5.738;2023-06-10T02:34:50;12.18;;;4.50;;
61391;SDS011;47261;52.892;5.738;2023-06-10T02:37:16;10.57;;;3.73;;
61391;SDS011;47261;52.892;5.738;2023-06-10T02:39:42;8.73;;;4.00;;
61391;SDS011;47261;52.892;5.738;2023-06-10T02:42:08;11.48;;;4.25;;
61391;SDS011;47261;52.892;5.738;2023-06-10T02:44:34;12.43;;;4.88;;
61391;SDS011;47261;52.892;5.738;2023-06-10T02:46:59;12.53;;;4.07;;
61391;SDS011;47261;52.892;5.738;2023-06-10T02:49:25;11.48;;;3.60;;
61391;SDS011;47261;52.892;5.738;2023-06-10T02:51:53;12.20;;;3.97;;
61391;SDS011;47261;52.892;5.738;2023-06-10T02:54:20;11.90;;;4.38;;
61391;SDS011;47261;52.892;5.738;2023-06-10T02:56:46;10.30;;;3.95;;
61391;SDS011;47261;52.892;5.738;2023-06-10T02:59:13;11.30;;;4.30;;
61391;SDS011;47261;52.892;5.738;2023-06-10T03:01:39;10.40;;;4.20;;
61391;SDS011;47261;52.892;5.738;2023-06-10T03:04:05;12.38;;;4.30;;
61391;SDS011;47261;52.892;5.738;2023-06-10T03:06:31;12.90;;;4.57;;
61391;SDS011;47261;52.892;5.738;2023-06-10T03:08:59;11.73;;;3.92;;
61391;SDS011;47261;52.892;5.738;2023-06-10T03:11:25;10.33;;;3.77;;
61391;SDS011;47261;52.892;5.738;2023-06-10T03:13:51;9.65;;;4.35;;
61391;SDS011;47261;52.892;5.738;2023-06-10T03:16:18;9.95;;;4.28;;
61391;SDS011;47261;52.892;5.738;2023-06-10T03:18:44;11.43;;;3.90;;
61391;SDS011;47261;52.892;5.738;2023-06-10T03:21:10;10.17;;;3.87;;
61391;SDS011;47261;52.892;5.738;2023-06-10T03:23:36;11.13;;;4.10;;
61391;SDS011;47261;52.892;5.738;2023-06-10T03:26:02;11.57;;;4.47;;
61391;SDS011;47261;52.892;5.738;2023-06-10T03:28:30;13.05;;;3.92;;
61391;SDS011;47261;52.892;5.738;2023-06-10T03:30:55;10.13;;;3.70;;
61391;SDS011;47261;52.892;5.738;2023-06-10T03:33:21;10.57;;;4.10;;
61391;SDS011;47261;52.892;5.738;2023-06-10T03:35:47;9.50;;;4.03;;
61391;SDS011;47261;52.892;5.738;2023-06-10T03:38:12;8.07;;;3.47;;
61391;SDS011;47261;52.892;5.738;2023-06-10T03:40:38;13.05;;;4.00;;
61391;SDS011;47261;52.892;5.738;2023-06-10T03:43:04;11.27;;;4.40;;
61391;SDS011;47261;52.892;5.738;2023-06-10T03:45:30;10.73;;;4.27;;
61391;SDS011;47261;52.892;5.738;2023-06-10T03:47:57;9.55;;;3.78;;
61391;SDS011;47261;52.892;5.738;2023-06-10T03:50:22;10.82;;;4.20;;
61391;SDS011;47261;52.892;5.738;2023-06-10T03:52:49;14.07;;;4.88;;
61391;SDS011;47261;52.892;5.738;2023-06-10T03:55:15;12.07;;;4.03;;
61391;SDS011;47261;52.892;5.738;2023-06-10T03:57:42;10.43;;;3.55;;
61391;SDS011;47261;52.892;5.738;2023-06-10T04:00:08;9.35;;;4.03;;
61391;SDS011;47261;52.892;5.738;2023-06-10T04:02:37;9.60;;;3.28;;
61391;SDS011;47261;52.892;5.738;2023-06-10T04:05:11;10.48;;;3.70;;
61391;SDS011;47261;52.892;5.738;2023-06-10T04:07:37;11.67;;;3.53;;
61391;SDS011;47261;52.892;5.738;2023-06-10T04:10:05;13.70;;;4.43;;
61391;SDS011;47261;52.892;5.738;2023-06-10T04:12:32;10.00;;;3.92;;
61391;SDS011;47261;52.892;5.738;2023-06-10T04:14:57;11.70;;;3.97;;
61391;SDS011;47261;52.892;5.738;2023-06-10T04:17:23;11.77;;;3.92;;
61391;SDS011;47261;52.892;5.738;2023-06-10T04:19:49;8.63;;;3.27;;
61391;SDS011;47261;52.892;5.738;2023-06-10T04:22:15;12.10;;;3.92;;
61391;SDS011;47261;52.892;5.738;2023-06-10T04:24:41;14.25;;;3.97;;
61391;SDS011;47261;52.892;5.738;2023-06-10T04:27:07;8.98;;;2.92;;
61391;SDS011;47261;52.892;5.738;2023-06-10T04:29:33;10.90;;;3.57;;
61391;SDS011;47261;52.892;5.738;2023-06-10T04:31:59;9.88;;;3.70;;
61391;SDS011;47261;52.892;5.738;2023-06-10T04:34:26;12.38;;;3.50;;
61391;SDS011;47261;52.892;5.738;2023-06-10T04:36:52;9.60;;;3.40;;
61391;SDS011;47261;52.892;5.738;2023-06-10T04:39:18;10.43;;;3.67;;
61391;SDS011;47261;52.892;5.738;2023-06-10T04:41:43;11.47;;;3.80;;
61391;SDS011;47261;52.892;5.738;2023-06-10T04:44:09;7.72;;;3.35;;
61391;SDS011;47261;52.892;5.738;2023-06-10T04:46:35;8.90;;;3.30;;
61391;SDS011;47261;52.892;5.738;2023-06-10T04:49:01;9.98;;;3.53;;
61391;SDS011;47261;52.892;5.738;2023-06-10T04:51:27;9.50;;;3.35;;
61391;SDS011;47261;52.892;5.738;2023-06-10T04:53:53;9.50;;;3.93;;
61391;SDS011;47261;52.892;5.738;2023-06-10T04:56:19;8.85;;;3.25;;
61391;SDS011;47261;52.892;5.738;2023-06-10T04:58:45;11.68;;;3.92;;
61391;SDS011;47261;52.892;5.738;2023-06-10T05:01:11;8.27;;;3.10;;
61391;SDS011;47261;52.892;5.738;2023-06-10T05:03:36;10.98;;;3.42;;
61391;SDS011;47261;52.892;5.738;2023-06-10T05:06:02;9.83;;;3.33;;
61391;SDS011;47261;52.892;5.738;2023-06-10T05:08:27;10.30;;;3.87;;
61391;SDS011;47261;52.892;5.738;2023-06-10T05:10:53;10.63;;;3.53;;
61391;SDS011;47261;52.892;5.738;2023-06-10T05:13:19;14.63;;;3.13;;
61391;SDS011;47261;52.892;5.738;2023-06-10T05:15:44;8.70;;;3.20;;
61391;SDS011;47261;52.892;5.738;2023-06-10T05:18:11;7.80;;;3.50;;
61391;SDS011;47261;52.892;5.738;2023-06-10T05:20:37;8.47;;;3.10;;
61391;SDS011;47261;52.892;5.738;2023-06-10T05:23:03;8.15;;;3.40;;
61391;SDS011;47261;52.892;5.738;2023-06-10T05:25:32;11.23;;;3.70;;
61391;SDS011;47261;52.892;5.738;2023-06-10T05:27:58;9.80;;;3.25;;
61391;SDS011;47261;52.892;5.738;2023-06-10T05:30:24;9.50;;;3.40;;
61391;SDS011;47261;52.892;5.738;2023-06-10T05:32:51;12.05;;;3.95;;
61391;SDS011;47261;52.892;5.738;2023-06-10T05:35:17;10.73;;;3.88;;
61391;SDS011;47261;52.892;5.738;2023-06-10T05:37:43;12.47;;;3.50;;
61391;SDS011;47261;52.892;5.738;2023-06-10T05:40:09;11.35;;;3.60;;
61391;SDS011;47261;52.892;5.738;2023-06-10T05:42:35;14.20;;;3.63;;
61391;SDS011;47261;52.892;5.738;2023-06-10T05:45:01;8.07;;;3.40;;
61391;SDS011;47261;52.892;5.738;2023-06-10T05:47:27;9.57;;;3.85;;
61391;SDS011;47261;52.892;5.738;2023-06-10T05:49:53;10.33;;;4.00;;
61391;SDS011;47261;52.892;5.738;2023-06-10T05:52:19;13.10;;;3.50;;
61391;SDS011;47261;52.892;5.738;2023-06-10T05:54:44;13.52;;;3.92;;
61391;SDS011;47261;52.892;5.738;2023-06-10T05:57:10;13.70;;;3.80;;
61391;SDS011;47261;52.892;5.738;2023-06-10T05:59:36;13.05;;;3.92;;
61391;SDS011;47261;52.892;5.738;2023-06-10T06:02:01;14.03;;;3.60;;
61391;SDS011;47261;52.892;5.738;2023-06-10T06:04:27;15.83;;;4.03;;
61391;SDS011;47261;52.892;5.738;2023-06-10T06:06:53;10.67;;;3.80;;
61391;SDS011;47261;52.892;5.738;2023-06-10T06:09:18;10.20;;;3.80;;
61391;SDS011;47261;52.892;5.738;2023-06-10T06:11:44;10.13;;;3.60;;
61391;SDS011;47261;52.892;5.738;2023-06-10T06:14:10;11.07;;;3.80;;
61391;SDS011;47261;52.892;5.738;2023-06-10T06:16:35;11.05;;;3.75;;
61391;SDS011;47261;52.892;5.738;2023-06-10T06:19:01;11.57;;;3.50;;
61391;SDS011;47261;52.892;5.738;2023-06-10T06:21:26;14.23;;;3.57;;
61391;SDS011;47261;52.892;5.738;2023-06-10T06:23:52;9.65;;;2.85;;
61391;SDS011;47261;52.892;5.738;2023-06-10T06:26:18;9.50;;;3.73;;
61391;SDS011;47261;52.892;5.738;2023-06-10T06:28:43;9.63;;;3.75;;
61391;SDS011;47261;52.892;5.738;2023-06-10T06:31:09;11.93;;;3.53;;
61391;SDS011;47261;52.892;5.738;2023-06-10T06:33:34;12.18;;;3.45;;
61391;SDS011;47261;52.892;5.738;2023-06-10T06:36:00;10.77;;;3.20;;
61391;SDS011;47261;52.892;5.738;2023-06-10T06:38:26;10.13;;;3.10;;
61391;SDS011;47261;52.892;5.738;2023-06-10T06:40:52;9.40;;;3.30;;
61391;SDS011;47261;52.892;5.738;2023-06-10T06:43:17;9.35;;;3.40;;
61391;SDS011;47261;52.892;5.738;2023-06-10T06:45:43;9.13;;;3.63;;
61391;SDS011;47261;52.892;5.738;2023-06-10T06:48:10;11.32;;;3.22;;
61391;SDS011;47261;52.892;5.738;2023-06-10T06:50:36;10.05;;;3.03;;
61391;SDS011;47261;52.892;5.738;2023-06-10T06:53:02;9.50;;;3.53;;
61391;SDS011;47261;52.892;5.738;2023-06-10T06:55:28;10.32;;;3.15;;
61391;SDS011;47261;52.892;5.738;2023-06-10T06:57:54;7.88;;;3.35;;
61391;SDS011;47261;52.892;5.738;2023-06-10T07:00:20;8.25;;;3.08;;
61391;SDS011;47261;52.892;5.738;2023-06-10T07:02:46;10.47;;;4.03;;
61391;SDS011;47261;52.892;5.738;2023-06-10T07:05:12;10.82;;;3.72;;
61391;SDS011;47261;52.892;5.738;2023-06-10T07:07:37;11.50;;;3.07;;
61391;SDS011;47261;52.892;5.738;2023-06-10T07:10:03;9.37;;;3.40;;
61391;SDS011;47261;52.892;5.738;2023-06-10T07:12:29;9.77;;;3.60;;
61391;SDS011;47261;52.892;5.738;2023-06-10T07:14:55;9.53;;;3.47;;
61391;SDS011;47261;52.892;5.738;2023-06-10T07:17:20;8.40;;;3.70;;
61391;SDS011;47261;52.892;5.738;2023-06-10T07:19:46;8.63;;;3.10;;
61391;SDS011;47261;52.892;5.738;2023-06-10T07:22:12;10.20;;;2.97;;
61391;SDS011;47261;52.892;5.738;2023-06-10T07:24:37;7.97;;;2.67;;
61391;SDS011;47261;52.892;5.738;2023-06-10T07:27:03;8.40;;;2.70;;
61391;SDS011;47261;52.892;5.738;2023-06-10T07:29:30;9.87;;;3.23;;
61391;SDS011;47261;52.892;5.738;2023-06-10T07:31:56;10.13;;;3.58;;
61391;SDS011;47261;52.892;5.738;2023-06-10T07:34:21;10.10;;;3.07;;
61391;SDS011;47261;52.892;5.738;2023-06-10T07:36:47;10.80;;;3.63;;
61391;SDS011;47261;52.892;5.738;2023-06-10T07:39:13;11.13;;;3.27;;
61391;SDS011;47261;52.892;5.738;2023-06-10T07:41:38;10.95;;;3.58;;
61391;SDS011;47261;52.892;5.738;2023-06-10T07:44:04;10.07;;;3.17;;
61391;SDS011;47261;52.892;5.738;2023-06-10T07:46:30;10.63;;;3.30;;
61391;SDS011;47261;52.892;5.738;2023-06-10T07:48:55;10.20;;;3.65;;
61391;SDS011;47261;52.892;5.738;2023-06-10T07:51:21;10.07;;;3.50;;
61391;SDS011;47261;52.892;5.738;2023-06-10T07:53:47;11.05;;;3.10;;
61391;SDS011;47261;52.892;5.738;2023-06-10T07:56:12;10.27;;;3.00;;
61391;SDS011;47261;52.892;5.738;2023-06-10T07:58:38;9.48;;;3.53;;
61391;SDS011;47261;52.892;5.738;2023-06-10T08:01:04;9.57;;;2.77;;
61391;SDS011;47261;52.892;5.738;2023-06-10T08:03:29;9.20;;;2.85;;
61391;SDS011;47261;52.892;5.738;2023-06-10T08:05:55;8.83;;;3.00;;
61391;SDS011;47261;52.892;5.738;2023-06-10T08:08:20;9.27;;;3.00;;
61391;SDS011;47261;52.892;5.738;2023-06-10T08:10:46;9.47;;;2.97;;
61391;SDS011;47261;52.892;5.738;2023-06-10T08:13:13;8.93;;;3.22;;
61391;SDS011;47261;52.892;5.738;2023-06-10T08:15:38;9.20;;;3.03;;
61391;SDS011;47261;52.892;5.738;2023-06-10T08:18:04;8.32;;;2.75;;
61391;SDS011;47261;52.892;5.738;2023-06-10T08:20:29;6.20;;;2.47;;
61391;SDS011;47261;52.892;5.738;2023-06-10T08:22:55;7.47;;;2.65;;
61391;SDS011;47261;52.892;5.738;2023-06-10T08:25:21;7.60;;;2.80;;
61391;SDS011;47261;52.892;5.738;2023-06-10T08:27:47;8.02;;;2.70;;
61391;SDS011;47261;52.892;5.738;2023-06-10T08:30:13;7.15;;;2.50;;
61391;SDS011;47261;52.892;5.738;2023-06-10T08:32:39;6.97;;;2.47;;
61391;SDS011;47261;52.892;5.738;2023-06-10T08:35:05;5.30;;;2.17;;
61391;SDS011;47261;52.892;5.738;2023-06-10T08:37:31;5.88;;;2.30;;
61391;SDS011;47261;52.892;5.738;2023-06-10T08:39:56;11.40;;;2.70;;
61391;SDS011;47261;52.892;5.738;2023-06-10T08:42:23;6.60;;;2.13;;
61391;SDS011;47261;52.892;5.738;2023-06-10T08:44:53;6.82;;;2.50;;
61391;SDS011;47261;52.892;5.738;2023-06-10T08:47:20;9.23;;;2.47;;
61391;SDS011;47261;52.892;5.738;2023-06-10T08:49:48;8.57;;;2.58;;
61391;SDS011;47261;52.892;5.738;2023-06-10T08:52:16;5.85;;;2.55;;
61391;SDS011;47261;52.892;5.738;2023-06-10T08:54:52;7.70;;;2.47;;
61391;SDS011;47261;52.892;5.738;2023-06-10T08:57:28;8.10;;;3.10;;
61391;SDS011;47261;52.892;5.738;2023-06-10T08:59:56;8.68;;;3.10;;
61391;SDS011;47261;52.892;5.738;2023-06-10T09:02:23;8.82;;;2.65;;
61391;SDS011;47261;52.892;5.738;2023-06-10T09:04:50;8.80;;;3.08;;
61391;SDS011;47261;52.892;5.738;2023-06-10T09:07:16;8.03;;;2.70;;
61391;SDS011;47261;52.892;5.738;2023-06-10T09:09:42;7.82;;;2.67;;
61391;SDS011;47261;52.892;5.738;2023-06-10T09:12:09;7.38;;;2.50;;
61391;SDS011;47261;52.892;5.738;2023-06-10T09:14:36;7.68;;;3.13;;
61391;SDS011;47261;52.892;5.738;2023-06-10T09:17:02;8.17;;;3.13;;
61391;SDS011;47261;52.892;5.738;2023-06-10T09:19:29;11.02;;;3.40;;
61391;SDS011;47261;52.892;5.738;2023-06-10T09:21:54;8.03;;;3.43;;
61391;SDS011;47261;52.892;5.738;2023-06-10T09:24:21;8.97;;;3.40;;
61391;SDS011;47261;52.892;5.738;2023-06-10T09:26:48;10.90;;;3.60;;
61391;SDS011;47261;52.892;5.738;2023-06-10T09:29:13;10.57;;;3.80;;
61391;SDS011;47261;52.892;5.738;2023-06-10T09:31:39;12.30;;;3.72;;
61391;SDS011;47261;52.892;5.738;2023-06-10T09:34:09;10.13;;;3.50;;
61391;SDS011;47261;52.892;5.738;2023-06-10T09:36:39;9.18;;;3.80;;
61391;SDS011;47261;52.892;5.738;2023-06-10T09:39:06;9.10;;;3.65;;
61391;SDS011;47261;52.892;5.738;2023-06-10T09:41:42;8.10;;;3.50;;
61391;SDS011;47261;52.892;5.738;2023-06-10T09:44:11;13.13;;;3.47;;
61391;SDS011;47261;52.892;5.738;2023-06-10T09:46:45;10.30;;;3.60;;
61391;SDS011;47261;52.892;5.738;2023-06-10T09:49:12;8.15;;;3.60;;
61391;SDS011;47261;52.892;5.738;2023-06-10T09:51:48;7.45;;;3.40;;
61391;SDS011;47261;52.892;5.738;2023-06-10T09:54:17;9.98;;;3.20;;
61391;SDS011;47261;52.892;5.738;2023-06-10T09:56:44;7.15;;;3.30;;
61391;SDS011;47261;52.892;5.738;2023-06-10T09:59:16;10.67;;;2.83;;
61391;SDS011;47261;52.892;5.738;2023-06-10T10:01:55;8.52;;;3.22;;
61391;SDS011;47261;52.892;5.738;2023-06-10T10:04:24;9.85;;;3.83;;
61391;SDS011;47261;52.892;5.738;2023-06-10T10:06:51;7.07;;;3.05;;
61391;SDS011;47261;52.892;5.738;2023-06-10T10:09:17;7.07;;;3.70;;
61391;SDS011;47261;52.892;5.738;2023-06-10T10:11:43;8.70;;;3.90;;
61391;SDS011;47261;52.892;5.738;2023-06-10T10:14:09;10.35;;;3.42;;
61391;SDS011;47261;52.892;5.738;2023-06-10T10:16:37;6.68;;;2.97;;
61391;SDS011;47261;52.892;5.738;2023-06-10T10:19:16;9.43;;;3.43;;
61391;SDS011;47261;52.892;5.738;2023-06-10T10:21:55;6.65;;;2.95;;
61391;SDS011;47261;52.892;5.738;2023-06-10T10:24:31;8.63;;;3.45;;
61391;SDS011;47261;52.892;5.738;2023-06-10T10:27:17;9.15;;;3.13;;
61391;SDS011;47261;52.892;5.738;2023-06-10T10:29:58;6.70;;;3.10;;
61391;SDS011;47261;52.892;5.738;2023-06-10T10:32:35;8.90;;;3.40;;
61391;SDS011;47261;52.892;5.738;2023-06-10T10:35:08;6.50;;;3.30;;
61391;SDS011;47261;52.892;5.738;2023-06-10T10:37:37;8.60;;;3.20;;
61391;SDS011;47261;52.892;5.738;2023-06-10T10:40:04;11.02;;;3.60;;
61391;SDS011;47261;52.892;5.738;2023-06-10T10:42:32;7.20;;;3.10;;
61391;SDS011;47261;52.892;5.738;2023-06-10T10:44:59;8.95;;;3.20;;
61391;SDS011;47261;52.892;5.738;2023-06-10T10:47:27;7.82;;;3.60;;
61391;SDS011;47261;52.892;5.738;2023-06-10T10:49:54;9.77;;;3.13;;
61391;SDS011;47261;52.892;5.738;2023-06-10T10:52:24;6.90;;;3.13;;
61391;SDS011;47261;52.892;5.738;2023-06-10T10:54:50;8.00;;;3.20;;
61391;SDS011;47261;52.892;5.738;2023-06-10T10:57:19;9.25;;;3.30;;
61391;SDS011;47261;52.892;5.738;2023-06-10T11:02:18;6.23;;;2.90;;
61391;SDS011;47261;52.892;5.738;2023-06-10T11:04:44;9.07;;;3.13;;
61391;SDS011;47261;52.892;5.738;2023-06-10T11:07:11;8.45;;;3.30;;
61391;SDS011;47261;52.892;5.738;2023-06-10T11:09:42;7.05;;;2.88;;
61391;SDS011;47261;52.892;5.738;2023-06-10T11:12:26;6.82;;;3.28;;
61391;SDS011;47261;52.892;5.738;2023-06-10T11:15:13;9.40;;;3.03;;
61391;SDS011;47261;52.892;5.738;2023-06-10T11:20:51;7.60;;;3.00;;
61391;SDS011;47261;52.892;5.738;2023-06-10T11:26:09;6.57;;;3.20;;
61391;SDS011;47261;52.892;5.738;2023-06-10T11:31:21;6.43;;;2.88;;
61391;SDS011;47261;52.892;5.738;2023-06-10T11:33:51;7.05;;;3.08;;
61391;SDS011;47261;52.892;5.738;2023-06-10T11:36:28;7.40;;;3.00;;
61391;SDS011;47261;52.892;5.738;2023-06-10T11:39:01;7.07;;;3.53;;
61391;SDS011;47261;52.892;5.738;2023-06-10T11:41:29;8.27;;;3.40;;
61391;SDS011;47261;52.892;5.738;2023-06-10T11:43:56;5.13;;;2.55;;
61391;SDS011;47261;52.892;5.738;2023-06-10T11:46:26;7.05;;;3.13;;
61391;SDS011;47261;52.892;5.738;2023-06-10T11:48:57;6.53;;;3.23;;
61391;SDS011;47261;52.892;5.738;2023-06-10T11:51:27;9.02;;;3.60;;
61391;SDS011;47261;52.892;5.738;2023-06-10T11:53:55;10.98;;;3.35;;
61391;SDS011;47261;52.892;5.738;2023-06-10T11:56:27;5.30;;;2.63;;
61391;SDS011;47261;52.892;5.738;2023-06-10T11:59:01;10.18;;;3.47;;
61391;SDS011;47261;52.892;5.738;2023-06-10T12:01:30;5.43;;;2.70;;
61391;SDS011;47261;52.892;5.738;2023-06-10T12:04:00;5.93;;;3.20;;
61391;SDS011;47261;52.892;5.738;2023-06-10T12:06:40;6.70;;;3.00;;
61391;SDS011;47261;52.892;5.738;2023-06-10T12:09:15;5.65;;;2.88;;
61391;SDS011;47261;52.892;5.738;2023-06-10T12:11:44;6.82;;;3.05;;
61391;SDS011;47261;52.892;5.738;2023-06-10T12:14:11;8.43;;;3.13;;
61391;SDS011;47261;52.892;5.738;2023-06-10T12:16:37;8.80;;;3.28;;
61391;SDS011;47261;52.892;5.738;2023-06-10T12:19:03;6.60;;;2.90;;
61391;SDS011;47261;52.892;5.738;2023-06-10T12:21:31;10.43;;;3.03;;
61391;SDS011;47261;52.892;5.738;2023-06-10T12:26:36;7.10;;;2.97;;
61391;SDS011;47261;52.892;5.738;2023-06-10T12:29:14;11.82;;;3.20;;
61391;SDS011;47261;52.892;5.738;2023-06-10T12:34:28;6.18;;;2.65;;
61391;SDS011;47261;52.892;5.738;2023-06-10T12:36:54;5.30;;;2.40;;
61391;SDS011;47261;52.892;5.738;2023-06-10T12:39:20;6.57;;;2.90;;
61391;SDS011;47261;52.892;5.738;2023-06-10T12:41:49;7.90;;;2.53;;
61391;SDS011;47261;52.892;5.738;2023-06-10T12:44:16;7.85;;;2.80;;
61391;SDS011;47261;52.892;5.738;2023-06-10T12:46:41;7.93;;;2.50;;
61391;SDS011;47261;52.892;5.738;2023-06-10T12:49:07;5.57;;;2.33;;
61391;SDS011;47261;52.892;5.738;2023-06-10T12:51:33;6.63;;;2.40;;
61391;SDS011;47261;52.892;5.738;2023-06-10T12:53:59;10.20;;;2.75;;
61391;SDS011;47261;52.892;5.738;2023-06-10T12:56:25;7.18;;;2.53;;
61391;SDS011;47261;52.892;5.738;2023-06-10T12:58:51;4.47;;;2.10;;
61391;SDS011;47261;52.892;5.738;2023-06-10T13:01:16;5.25;;;2.40;;
61391;SDS011;47261;52.892;5.738;2023-06-10T13:03:42;7.60;;;2.43;;
61391;SDS011;47261;52.892;5.738;2023-06-10T13:06:07;5.40;;;2.10;;
61391;SDS011;47261;52.892;5.738;2023-06-10T13:08:33;4.57;;;2.23;;
61391;SDS011;47261;52.892;5.738;2023-06-10T13:10:59;5.80;;;2.30;;
61391;SDS011;47261;52.892;5.738;2023-06-10T13:13:24;4.78;;;1.98;;
61391;SDS011;47261;52.892;5.738;2023-06-10T13:15:50;5.93;;;2.10;;
61391;SDS011;47261;52.892;5.738;2023-06-10T13:18:16;5.00;;;2.30;;
61391;SDS011;47261;52.892;5.738;2023-06-10T13:20:45;5.95;;;2.22;;
61391;SDS011;47261;52.892;5.738;2023-06-10T13:23:10;7.70;;;2.15;;
61391;SDS011;47261;52.892;5.738;2023-06-10T13:25:36;7.63;;;2.27;;
61391;SDS011;47261;52.892;5.738;2023-06-10T13:28:02;6.07;;;2.20;;
61391;SDS011;47261;52.892;5.738;2023-06-10T13:30:28;5.88;;;1.92;;
61391;SDS011;47261;52.892;5.738;2023-06-10T13:32:53;6.13;;;1.85;;
61391;SDS011;47261;52.892;5.738;2023-06-10T13:35:19;5.10;;;2.20;;
61391;SDS011;47261;52.892;5.738;2023-06-10T13:37:45;5.13;;;1.88;;
61391;SDS011;47261;52.892;5.738;2023-06-10T13:40:11;6.27;;;2.17;;
61391;SDS011;47261;52.892;5.738;2023-06-10T13:42:37;5.22;;;2.00;;
61391;SDS011;47261;52.892;5.738;2023-06-10T13:45:03;7.23;;;2.07;;
61391;SDS011;47261;52.892;5.738;2023-06-10T13:47:30;5.20;;;1.88;;
61391;SDS011;47261;52.892;5.738;2023-06-10T13:49:56;5.50;;;2.13;;
61391;SDS011;47261;52.892;5.738;2023-06-10T13:52:22;5.97;;;2.23;;
61391;SDS011;47261;52.892;5.738;2023-06-10T13:54:47;6.72;;;2.40;;
61391;SDS011;47261;52.892;5.738;2023-06-10T13:57:13;7.00;;;2.33;;
61391;SDS011;47261;52.892;5.738;2023-06-10T13:59:39;6.63;;;2.47;;
61391;SDS011;47261;52.892;5.738;2023-06-10T14:02:04;5.22;;;2.20;;
61391;SDS011;47261;52.892;5.738;2023-06-10T14:04:30;6.03;;;2.33;;
61391;SDS011;47261;52.892;5.738;2023-06-10T14:06:55;4.50;;;2.07;;
61391;SDS011;47261;52.892;5.738;2023-06-10T14:09:22;6.40;;;2.60;;
61391;SDS011;47261;52.892;5.738;2023-06-10T14:11:48;5.65;;;2.22;;
61391;SDS011;47261;52.892;5.738;2023-06-10T14:14:13;6.07;;;2.08;;
61391;SDS011;47261;52.892;5.738;2023-06-10T14:16:40;6.80;;;2.17;;
61391;SDS011;47261;52.892;5.738;2023-06-10T14:19:05;5.90;;;2.17;;
61391;SDS011;47261;52.892;5.738;2023-06-10T14:21:31;7.40;;;2.40;;
61391;SDS011;47261;52.892;5.738;2023-06-10T14:23:56;14.07;;;2.05;;
61391;SDS011;47261;52.892;5.738;2023-06-10T14:26:22;4.77;;;2.03;;
61391;SDS011;47261;52.892;5.738;2023-06-10T14:28:48;7.68;;;2.58;;
61391;SDS011;47261;52.892;5.738;2023-06-10T14:31:15;4.77;;;2.10;;
61391;SDS011;47261;52.892;5.738;2023-06-10T14:33:41;4.45;;;2.20;;
61391;SDS011;47261;52.892;5.738;2023-06-10T14:36:08;6.78;;;2.40;;
61391;SDS011;47261;52.892;5.738;2023-06-10T14:38:34;5.63;;;2.40;;
61391;SDS011;47261;52.892;5.738;2023-06-10T14:41:00;4.97;;;2.30;;
61391;SDS011;47261;52.892;5.738;2023-06-10T14:43:26;4.68;;;2.03;;
61391;SDS011;47261;52.892;5.738;2023-06-10T14:45:51;4.67;;;2.07;;
61391;SDS011;47261;52.892;5.738;2023-06-10T14:48:17;6.23;;;2.40;;
61391;SDS011;47261;52.892;5.738;2023-06-10T14:50:43;5.10;;;2.05;;
61391;SDS011;47261;52.892;5.738;2023-06-10T14:53:11;8.00;;;2.58;;
61391;SDS011;47261;52.892;5.738;2023-06-10T14:55:37;6.00;;;2.40;;
61391;SDS011;47261;52.892;5.738;2023-06-10T14:58:02;5.70;;;2.27;;
61391;SDS011;47261;52.892;5.738;2023-06-10T15:00:28;4.20;;;2.05;;
61391;SDS011;47261;52.892;5.738;2023-06-10T15:02:54;5.87;;;2.50;;
61391;SDS011;47261;52.892;5.738;2023-06-10T15:05:22;6.85;;;2.30;;
61391;SDS011;47261;52.892;5.738;2023-06-10T15:07:48;6.82;;;1.88;;